sensor_id;sensor_type;location;lat;lon;timestamp;pressure;altitude;pressure_sealevel;temperature;humidity
50292;BME280;36190;54.980;73.388;2023-11-19T00:01:08;99532.84;;;-6.64;87.87
50292;BME280;36190;54.980;73.388;2023-11-19T00:03:35;99542.47;;;-6.66;88.12
50292;BME280;36190;54.980;73.388;2023-11-19T00:06:03;99595.13;;;-6.64;88.27
50292;BME280;36190;54.980;73.388;2023-11-19T00:08:31;99595.19;;;-6.65;87.96
50292;BME280;36190;54.980;73.388;2023-11-19T00:11:00;99564.44;;;-6.73;87.56
50292;BME280;36190;54.980;73.388;2023-11-19T00:13:28;99596.06;;;-6.82;87.45
50292;BME280;36190;54.980;73.388;2023-11-19T00:15:56;99585.22;;;-6.91;87.64
50292;BME280;36190;54.980;73.388;2023-11-19T00:18:23;99581.09;;;-6.95;87.45
50292;BME280;36190;54.980;73.388;2023-11-19T00:20:51;99602.22;;;-7.02;87.32
50292;BME280;36190;54.980;73.388;2023-11-19T00:23:18;99626.84;;;-7.11;87.19
50292;BME280;36190;54.980;73.388;2023-11-19T00:25:46;99628.03;;;-7.19;87.05
50292;BME280;36190;54.980;73.388;2023-11-19T00:28:15;99627.41;;;-7.24;87.08
50292;BME280;36190;54.980;73.388;2023-11-19T00:30:42;99634.59;;;-7.29;86.86
50292;BME280;36190;54.980;73.388;2023-11-19T00:33:10;99668.22;;;-7.27;87.01
50292;BME280;36190;54.980;73.388;2023-11-19T00:35:37;99653.72;;;-7.32;86.80
50292;BME280;36190;54.980;73.388;2023-11-19T00:38:04;99665.97;;;-7.35;86.84
50292;BME280;36190;54.980;73.388;2023-11-19T00:40:33;99683.25;;;-7.36;86.77
50292;BME280;36190;54.980;73.388;2023-11-19T00:43:00;99692.06;;;-7.38;86.80
50292;BME280;36190;54.980;73.388;2023-11-19T00:45:29;99703.34;;;-7.39;86.88
50292;BME280;36190;54.980;73.388;2023-11-19T00:47:57;99708.63;;;-7.42;86.71
50292;BME280;36190;54.980;73.388;2023-11-19T00:50:25;99725.53;;;-7.53;86.44
50292;BME280;36190;54.980;73.388;2023-11-19T00:52:52;99729.28;;;-7.60;86.23
50292;BME280;36190;54.980;73.388;2023-11-19T00:55:20;99749.47;;;-7.67;86.22
50292;BME280;36190;54.980;73.388;2023-11-19T00:57:47;99764.41;;;-7.74;86.08
50292;BME280;36190;54.980;73.388;2023-11-19T01:00:15;99769.09;;;-7.82;86.11
50292;BME280;36190;54.980;73.388;2023-11-19T01:02:46;99778.69;;;-7.84;86.04
50292;BME280;36190;54.980;73.388;2023-11-19T01:05:15;99792.78;;;-7.91;86.11
50292;BME280;36190;54.980;73.388;2023-11-19T01:07:43;99801.47;;;-7.92;85.92
50292;BME280;36190;54.980;73.388;2023-11-19T01:10:11;99816.34;;;-7.97;85.75
50292;BME280;36190;54.980;73.388;2023-11-19T01:12:38;99819.06;;;-8.01;85.75
50292;BME280;36190;54.980;73.388;2023-11-19T01:15:06;99841.72;;;-8.06;85.43
50292;BME280;36190;54.980;73.388;2023-11-19T01:17:34;99835.13;;;-8.13;85.39
50292;BME280;36190;54.980;73.388;2023-11-19T01:20:05;99842.09;;;-8.15;85.12
50292;BME280;36190;54.980;73.388;2023-11-19T01:22:33;99839.66;;;-8.18;85.26
50292;BME280;36190;54.980;73.388;2023-11-19T01:25:01;99843.91;;;-8.17;85.08
50292;BME280;36190;54.980;73.388;2023-11-19T01:27:28;99874.31;;;-8.22;84.96
50292;BME280;36190;54.980;73.388;2023-11-19T01:29:56;99867.34;;;-8.20;85.07
50292;BME280;36190;54.980;73.388;2023-11-19T01:32:24;99892.38;;;-8.21;84.93
50292;BME280;36190;54.980;73.388;2023-11-19T01:34:52;99888.09;;;-8.22;84.75
50292;BME280;36190;54.980;73.388;2023-11-19T01:37:21;99895.91;;;-8.23;84.84
50292;BME280;36190;54.980;73.388;2023-11-19T01:39:48;99917.53;;;-8.24;84.97
50292;BME280;36190;54.980;73.388;2023-11-19T01:42:16;99926.97;;;-8.23;85.11
50292;BME280;36190;54.980;73.388;2023-11-19T01:44:55;99922.63;;;-8.21;85.09
50292;BME280;36190;54.980;73.388;2023-11-19T01:47:25;99930.47;;;-8.24;85.04
50292;BME280;36190;54.980;73.388;2023-11-19T01:49:53;99935.78;;;-8.27;85.05
50292;BME280;36190;54.980;73.388;2023-11-19T01:52:23;99980.56;;;-8.25;84.85
50292;BME280;36190;54.980;73.388;2023-11-19T01:54:53;99925.78;;;-8.37;84.84
50292;BME280;36190;54.980;73.388;2023-11-19T01:57:22;99956.72;;;-8.34;84.65
50292;BME280;36190;54.980;73.388;2023-11-19T01:59:51;99956.72;;;-8.34;84.50
50292;BME280;36190;54.980;73.388;2023-11-19T02:02:19;99977.56;;;-8.37;84.46
50292;BME280;36190;54.980;73.388;2023-11-19T02:04:49;99978.38;;;-8.36;84.32
50292;BME280;36190;54.980;73.388;2023-11-19T02:07:17;99997.56;;;-8.42;84.51
50292;BME280;36190;54.980;73.388;2023-11-19T02:09:46;99995.84;;;-8.42;84.46
50292;BME280;36190;54.980;73.388;2023-11-19T02:12:13;100025.13;;;-8.41;84.41
50292;BME280;36190;54.980;73.388;2023-11-19T02:14:41;100006.41;;;-8.48;84.27
50292;BME280;36190;54.980;73.388;2023-11-19T02:17:25;100026.03;;;-8.42;84.51
50292;BME280;36190;54.980;73.388;2023-11-19T02:19:52;100044.94;;;-8.40;84.74
50292;BME280;36190;54.980;73.388;2023-11-19T02:22:20;100041.44;;;-8.39;84.73
50292;BME280;36190;54.980;73.388;2023-11-19T02:24:51;100050.09;;;-8.40;84.90
50292;BME280;36190;54.980;73.388;2023-11-19T02:27:28;100060.47;;;-8.40;84.89
50292;BME280;36190;54.980;73.388;2023-11-19T02:30:00;100075.00;;;-8.36;85.00
50292;BME280;36190;54.980;73.388;2023-11-19T02:32:29;100067.22;;;-8.36;85.10
50292;BME280;36190;54.980;73.388;2023-11-19T02:34:57;100067.22;;;-8.36;85.14
50292;BME280;36190;54.980;73.388;2023-11-19T02:37:24;100076.63;;;-8.33;85.26
50292;BME280;36190;54.980;73.388;2023-11-19T02:39:53;100083.53;;;-8.34;85.25
50292;BME280;36190;54.980;73.388;2023-11-19T02:42:21;100089.50;;;-8.32;85.14
50292;BME280;36190;54.980;73.388;2023-11-19T02:44:49;100100.88;;;-8.36;85.26
50292;BME280;36190;54.980;73.388;2023-11-19T02:47:17;100105.22;;;-8.38;85.21
50292;BME280;36190;54.980;73.388;2023-11-19T02:49:47;100115.50;;;-8.35;85.19
50292;BME280;36190;54.980;73.388;2023-11-19T02:52:15;100126.59;;;-8.31;85.39
50292;BME280;36190;54.980;73.388;2023-11-19T02:54:43;100131.66;;;-8.28;85.60
50292;BME280;36190;54.980;73.388;2023-11-19T02:57:11;100139.41;;;-8.28;85.48
50292;BME280;36190;54.980;73.388;2023-11-19T02:59:39;100142.75;;;-8.24;85.41
50292;BME280;36190;54.980;73.388;2023-11-19T03:02:09;100152.34;;;-8.28;85.32
50292;BME280;36190;54.980;73.388;2023-11-19T03:04:39;100144.66;;;-8.30;85.41
50292;BME280;36190;54.980;73.388;2023-11-19T03:07:06;100161.88;;;-8.29;85.54
50292;BME280;36190;54.980;73.388;2023-11-19T03:09:34;100170.47;;;-8.28;85.30
50292;BME280;36190;54.980;73.388;2023-11-19T03:12:02;100174.00;;;-8.31;85.19
50292;BME280;36190;54.980;73.388;2023-11-19T03:14:33;100190.44;;;-8.32;85.22
50292;BME280;36190;54.980;73.388;2023-11-19T03:17:01;100190.41;;;-8.30;85.26
50292;BME280;36190;54.980;73.388;2023-11-19T03:19:29;100188.59;;;-8.28;85.23
50292;BME280;36190;54.980;73.388;2023-11-19T03:21:58;100185.09;;;-8.27;85.12
50292;BME280;36190;54.980;73.388;2023-11-19T03:24:26;100211.72;;;-8.23;85.16
50292;BME280;36190;54.980;73.388;2023-11-19T03:26:54;100226.31;;;-8.21;84.93
50292;BME280;36190;54.980;73.388;2023-11-19T03:29:21;100237.53;;;-8.20;84.92
50292;BME280;36190;54.980;73.388;2023-11-19T03:31:49;100236.53;;;-8.16;84.99
50292;BME280;36190;54.980;73.388;2023-11-19T03:34:17;100250.31;;;-8.16;84.64
50292;BME280;36190;54.980;73.388;2023-11-19T03:36:44;100262.56;;;-8.21;84.64
50292;BME280;36190;54.980;73.388;2023-11-19T03:39:14;100274.72;;;-8.23;84.46
50292;BME280;36190;54.980;73.388;2023-11-19T03:41:41;100266.25;;;-8.28;84.18
50292;BME280;36190;54.980;73.388;2023-11-19T03:44:12;100289.63;;;-8.30;84.32
50292;BME280;36190;54.980;73.388;2023-11-19T03:46:40;100293.91;;;-8.29;84.16
50292;BME280;36190;54.980;73.388;2023-11-19T03:49:07;100297.31;;;-8.28;84.02
50292;BME280;36190;54.980;73.388;2023-11-19T03:51:35;100300.69;;;-8.26;83.74
50292;BME280;36190;54.980;73.388;2023-11-19T03:54:03;100304.94;;;-8.23;83.81
50292;BME280;36190;54.980;73.388;2023-11-19T03:56:33;100322.16;;;-8.22;83.33
50292;BME280;36190;54.980;73.388;2023-11-19T03:59:01;100336.00;;;-8.23;83.42
50292;BME280;36190;54.980;73.388;2023-11-19T04:01:28;100349.66;;;-8.18;83.34
50292;BME280;36190;54.980;73.388;2023-11-19T04:03:56;100356.63;;;-8.20;83.20
50292;BME280;36190;54.980;73.388;2023-11-19T04:06:23;100383.34;;;-8.20;83.05
50292;BME280;36190;54.980;73.388;2023-11-19T04:08:51;100360.00;;;-8.18;82.76
50292;BME280;36190;54.980;73.388;2023-11-19T04:11:18;100380.72;;;-8.18;82.69
50292;BME280;36190;54.980;73.388;2023-11-19T04:13:47;100382.41;;;-8.17;82.47
50292;BME280;36190;54.980;73.388;2023-11-19T04:16:15;100378.13;;;-8.18;82.40
50292;BME280;36190;54.980;73.388;2023-11-19T04:18:43;100377.13;;;-8.14;82.16
50292;BME280;36190;54.980;73.388;2023-11-19T04:21:10;100392.75;;;-8.17;81.85
50292;BME280;36190;54.980;73.388;2023-11-19T04:23:38;100408.34;;;-8.19;81.94
50292;BME280;36190;54.980;73.388;2023-11-19T04:26:05;100397.16;;;-8.19;82.07
50292;BME280;36190;54.980;73.388;2023-11-19T04:28:33;100403.09;;;-8.16;82.04
50292;BME280;36190;54.980;73.388;2023-11-19T04:31:02;100414.13;;;-8.10;82.04
50292;BME280;36190;54.980;73.388;2023-11-19T04:33:30;100421.06;;;-8.11;82.17
50292;BME280;36190;54.980;73.388;2023-11-19T04:35:57;100437.44;;;-8.10;81.96
50292;BME280;36190;54.980;73.388;2023-11-19T04:38:25;100426.38;;;-8.16;81.62
50292;BME280;36190;54.980;73.388;2023-11-19T04:40:53;100442.06;;;-8.20;81.81
50292;BME280;36190;54.980;73.388;2023-11-19T04:43:23;100444.53;;;-8.17;81.98
50292;BME280;36190;54.980;73.388;2023-11-19T04:45:50;100447.00;;;-8.12;81.97
50292;BME280;36190;54.980;73.388;2023-11-19T04:48:19;100468.44;;;-8.07;81.90
50292;BME280;36190;54.980;73.388;2023-11-19T04:50:47;100454.53;;;-8.05;81.77
50292;BME280;36190;54.980;73.388;2023-11-19T04:53:14;100473.34;;;-7.99;81.87
50292;BME280;36190;54.980;73.388;2023-11-19T04:55:43;100488.59;;;-7.90;81.71
50292;BME280;36190;54.980;73.388;2023-11-19T04:58:10;100488.41;;;-7.84;81.82
50292;BME280;36190;54.980;73.388;2023-11-19T05:00:38;100513.22;;;-7.75;81.40
50292;BME280;36190;54.980;73.388;2023-11-19T05:03:05;100514.22;;;-7.81;81.02
50292;BME280;36190;54.980;73.388;2023-11-19T05:05:35;100511.03;;;-7.89;80.93
50292;BME280;36190;54.980;73.388;2023-11-19T05:08:03;100504.88;;;-7.85;81.00
50292;BME280;36190;54.980;73.388;2023-11-19T05:10:31;100504.72;;;-7.80;81.31
50292;BME280;36190;54.980;73.388;2023-11-19T05:12:58;100516.56;;;-7.71;81.07
50292;BME280;36190;54.980;73.388;2023-11-19T05:15:26;100512.84;;;-7.64;81.00
50292;BME280;36190;54.980;73.388;2023-11-19T05:17:53;100526.47;;;-7.57;81.13
50292;BME280;36190;54.980;73.388;2023-11-19T05:20:21;100526.22;;;-7.50;81.00
50292;BME280;36190;54.980;73.388;2023-11-19T05:22:50;100517.75;;;-7.55;80.43
50292;BME280;36190;54.980;73.388;2023-11-19T05:25:19;100526.31;;;-7.53;80.76
50292;BME280;36190;54.980;73.388;2023-11-19T05:27:47;100527.03;;;-7.48;80.70
50292;BME280;36190;54.980;73.388;2023-11-19T05:30:14;100542.06;;;-7.32;80.91
50292;BME280;36190;54.980;73.388;2023-11-19T05:32:42;100547.94;;;-7.25;80.74
50292;BME280;36190;54.980;73.388;2023-11-19T05:35:09;100553.88;;;-7.22;80.37
50292;BME280;36190;54.980;73.388;2023-11-19T05:37:37;100560.03;;;-7.26;80.14
50292;BME280;36190;54.980;73.388;2023-11-19T05:40:07;100567.63;;;-7.20;80.34
50292;BME280;36190;54.980;73.388;2023-11-19T05:42:40;100574.38;;;-7.15;80.06
50292;BME280;36190;54.980;73.388;2023-11-19T05:45:09;100580.47;;;-7.16;79.71
50292;BME280;36190;54.980;73.388;2023-11-19T05:47:37;100576.34;;;-7.22;79.73
50292;BME280;36190;54.980;73.388;2023-11-19T05:50:05;100589.31;;;-7.22;79.54
50292;BME280;36190;54.980;73.388;2023-11-19T05:52:34;100584.13;;;-7.22;79.82
50292;BME280;36190;54.980;73.388;2023-11-19T05:55:02;100596.03;;;-7.16;79.90
50292;BME280;36190;54.980;73.388;2023-11-19T05:57:32;100594.94;;;-7.09;79.57
50292;BME280;36190;54.980;73.388;2023-11-19T06:00:00;100596.75;;;-7.11;79.24
50292;BME280;36190;54.980;73.388;2023-11-19T06:02:29;100597.34;;;-7.03;79.31
50292;BME280;36190;54.980;73.388;2023-11-19T06:04:57;100606.03;;;-7.04;78.89
50292;BME280;36190;54.980;73.388;2023-11-19T06:07:24;100616.28;;;-7.01;79.01
50292;BME280;36190;54.980;73.388;2023-11-19T06:09:52;100618.09;;;-7.03;78.78
50292;BME280;36190;54.980;73.388;2023-11-19T06:12:19;100613.97;;;-7.09;78.88
50292;BME280;36190;54.980;73.388;2023-11-19T06:14:48;100619.06;;;-7.07;78.98
50292;BME280;36190;54.980;73.388;2023-11-19T06:17:16;100642.94;;;-6.96;78.94
50292;BME280;36190;54.980;73.388;2023-11-19T06:19:43;100637.75;;;-6.96;78.73
50292;BME280;36190;54.980;73.388;2023-11-19T06:22:11;100641.44;;;-7.03;78.40
50292;BME280;36190;54.980;73.388;2023-11-19T06:24:39;100651.84;;;-7.05;78.63
50292;BME280;36190;54.980;73.388;2023-11-19T06:27:07;100645.78;;;-7.04;78.69
50292;BME280;36190;54.980;73.388;2023-11-19T06:29:35;100655.22;;;-7.01;78.47
50292;BME280;36190;54.980;73.388;2023-11-19T06:32:05;100661.34;;;-7.04;78.35
50292;BME280;36190;54.980;73.388;2023-11-19T06:34:33;100674.91;;;-6.95;78.40
50292;BME280;36190;54.980;73.388;2023-11-19T06:37:01;100664.75;;;-7.01;77.75
50292;BME280;36190;54.980;73.388;2023-11-19T06:39:30;100680.47;;;-7.06;77.90
50292;BME280;36190;54.980;73.388;2023-11-19T06:41:57;100684.81;;;-7.08;77.88
50292;BME280;36190;54.980;73.388;2023-11-19T06:44:25;100683.13;;;-7.09;77.55
50292;BME280;36190;54.980;73.388;2023-11-19T06:46:52;100685.66;;;-7.06;77.54
50292;BME280;36190;54.980;73.388;2023-11-19T06:49:21;100717.56;;;-7.04;77.29
50292;BME280;36190;54.980;73.388;2023-11-19T06:51:49;100713.44;;;-7.10;77.08
50292;BME280;36190;54.980;73.388;2023-11-19T06:54:16;100704.75;;;-7.09;77.22
50292;BME280;36190;54.980;73.388;2023-11-19T06:56:44;100706.47;;;-7.09;76.74
50292;BME280;36190;54.980;73.388;2023-11-19T06:59:12;100721.13;;;-7.08;76.79
50292;BME280;36190;54.980;73.388;2023-11-19T07:01:40;100726.47;;;-7.13;76.30
50292;BME280;36190;54.980;73.388;2023-11-19T07:04:11;100717.25;;;-7.22;76.16
50292;BME280;36190;54.980;73.388;2023-11-19T07:06:40;100719.84;;;-7.22;76.33
50292;BME280;36190;54.980;73.388;2023-11-19T07:09:08;100728.41;;;-7.20;76.42
50292;BME280;36190;54.980;73.388;2023-11-19T07:11:37;100730.00;;;-7.15;76.83
50292;BME280;36190;54.980;73.388;2023-11-19T07:14:04;100728.69;;;-7.00;76.92
50292;BME280;36190;54.980;73.388;2023-11-19T07:16:32;100739.69;;;-6.92;76.83
50292;BME280;36190;54.980;73.388;2023-11-19T07:19:00;100736.94;;;-6.87;76.45
50292;BME280;36190;54.980;73.388;2023-11-19T07:21:28;100744.91;;;-6.94;76.58
50292;BME280;36190;54.980;73.388;2023-11-19T07:23:57;100738.03;;;-6.95;76.48
50292;BME280;36190;54.980;73.388;2023-11-19T07:26:25;100760.59;;;-6.97;76.10
50292;BME280;36190;54.980;73.388;2023-11-19T07:28:52;100751.44;;;-7.09;76.10
50292;BME280;36190;54.980;73.388;2023-11-19T07:31:21;100780.88;;;-7.10;76.43
50292;BME280;36190;54.980;73.388;2023-11-19T07:33:49;100754.78;;;-7.05;76.12
50292;BME280;36190;54.980;73.388;2023-11-19T07:36:17;100742.56;;;-7.01;76.16
50292;BME280;36190;54.980;73.388;2023-11-19T07:38:45;100762.09;;;-6.89;76.08
50292;BME280;36190;54.980;73.388;2023-11-19T07:41:15;100753.25;;;-6.82;75.85
50292;BME280;36190;54.980;73.388;2023-11-19T07:43:43;100752.69;;;-6.94;75.39
50292;BME280;36190;54.980;73.388;2023-11-19T07:46:12;100778.81;;;-7.00;75.39
50292;BME280;36190;54.980;73.388;2023-11-19T07:48:40;100772.94;;;-7.05;75.81
50292;BME280;36190;54.980;73.388;2023-11-19T07:51:08;100767.94;;;-7.11;75.87
50292;BME280;36190;54.980;73.388;2023-11-19T07:53:35;100788.84;;;-7.18;75.95
50292;BME280;36190;54.980;73.388;2023-11-19T07:56:04;100776.88;;;-7.22;76.05
50292;BME280;36190;54.980;73.388;2023-11-19T07:58:34;100782.91;;;-7.21;76.19
50292;BME280;36190;54.980;73.388;2023-11-19T08:01:02;100783.66;;;-7.18;76.45
50292;BME280;36190;54.980;73.388;2023-11-19T08:03:30;100781.69;;;-7.09;76.53
50292;BME280;36190;54.980;73.388;2023-11-19T08:06:00;100785.81;;;-7.02;76.50
50292;BME280;36190;54.980;73.388;2023-11-19T08:08:28;100796.09;;;-6.99;76.43
50292;BME280;36190;54.980;73.388;2023-11-19T08:10:58;100800.41;;;-6.98;76.57
50292;BME280;36190;54.980;73.388;2023-11-19T08:13:25;100802.91;;;-6.95;76.55
50292;BME280;36190;54.980;73.388;2023-11-19T08:15:54;100815.91;;;-6.96;76.71
50292;BME280;36190;54.980;73.388;2023-11-19T08:18:22;100811.53;;;-6.94;76.72
50292;BME280;36190;54.980;73.388;2023-11-19T08:20:50;100813.16;;;-6.92;76.73
50292;BME280;36190;54.980;73.388;2023-11-19T08:23:19;100833.06;;;-6.91;76.70
50292;BME280;36190;54.980;73.388;2023-11-19T08:25:49;100836.63;;;-6.95;76.58
50292;BME280;36190;54.980;73.388;2023-11-19T08:28:16;100843.53;;;-6.95;76.40
50292;BME280;36190;54.980;73.388;2023-11-19T08:30:44;100830.91;;;-7.06;76.21
50292;BME280;36190;54.980;73.388;2023-11-19T08:33:13;100819.81;;;-7.11;76.20
50292;BME280;36190;54.980;73.388;2023-11-19T08:35:41;100826.69;;;-7.10;75.95
50292;BME280;36190;54.980;73.388;2023-11-19T08:38:08;100860.63;;;-7.18;75.58
50292;BME280;36190;54.980;73.388;2023-11-19T08:40:36;100835.13;;;-7.34;75.64
50292;BME280;36190;54.980;73.388;2023-11-19T08:43:04;100851.63;;;-7.36;76.10
50292;BME280;36190;54.980;73.388;2023-11-19T08:45:32;100851.50;;;-7.33;76.15
50292;BME280;36190;54.980;73.388;2023-11-19T08:47:59;100843.75;;;-7.33;76.16
50292;BME280;36190;54.980;73.388;2023-11-19T08:50:28;100851.59;;;-7.35;76.37
50292;BME280;36190;54.980;73.388;2023-11-19T08:52:56;100861.06;;;-7.34;76.08
50292;BME280;36190;54.980;73.388;2023-11-19T08:55:23;100861.31;;;-7.43;75.98
50292;BME280;36190;54.980;73.388;2023-11-19T08:57:52;100873.69;;;-7.54;76.00
50292;BME280;36190;54.980;73.388;2023-11-19T09:00:19;100867.84;;;-7.63;76.34
50292;BME280;36190;54.980;73.388;2023-11-19T09:02:47;100871.47;;;-7.68;76.29
50292;BME280;36190;54.980;73.388;2023-11-19T09:05:14;100861.31;;;-7.78;76.36
50292;BME280;36190;54.980;73.388;2023-11-19T09:07:43;100876.94;;;-7.81;76.70
50292;BME280;36190;54.980;73.388;2023-11-19T09:10:11;100897.66;;;-7.81;76.72
50292;BME280;36190;54.980;73.388;2023-11-19T09:12:38;100880.41;;;-7.82;76.65
50292;BME280;36190;54.980;73.388;2023-11-19T09:15:06;100889.97;;;-7.84;76.48
50292;BME280;36190;54.980;73.388;2023-11-19T09:17:36;100883.25;;;-7.91;76.55
50292;BME280;36190;54.980;73.388;2023-11-19T09:20:04;100892.56;;;-7.84;76.87
50292;BME280;36190;54.980;73.388;2023-11-19T09:22:32;100893.31;;;-7.79;77.01
50292;BME280;36190;54.980;73.388;2023-11-19T09:25:01;100915.00;;;-7.83;76.99
50292;BME280;36190;54.980;73.388;2023-11-19T09:27:29;100902.00;;;-7.81;77.14
50292;BME280;36190;54.980;73.388;2023-11-19T09:29:55;100927.06;;;-7.82;77.15
50292;BME280;36190;54.980;73.388;2023-11-19T09:32:24;100934.09;;;-7.87;77.17
50292;BME280;36190;54.980;73.388;2023-11-19T09:34:51;100931.53;;;-7.89;77.33
50292;BME280;36190;54.980;73.388;2023-11-19T09:37:19;100915.13;;;-7.89;77.59
50292;BME280;36190;54.980;73.388;2023-11-19T09:39:47;100930.59;;;-7.84;77.50
50292;BME280;36190;54.980;73.388;2023-11-19T09:42:16;100933.09;;;-7.81;77.56
50292;BME280;36190;54.980;73.388;2023-11-19T09:44:43;100931.41;;;-7.82;77.36
50292;BME280;36190;54.980;73.388;2023-11-19T09:47:12;100941.03;;;-7.89;77.33
50292;BME280;36190;54.980;73.388;2023-11-19T09:49:41;100935.91;;;-7.91;77.62
50292;BME280;36190;54.980;73.388;2023-11-19T09:52:09;100922.88;;;-7.88;77.91
50292;BME280;36190;54.980;73.388;2023-11-19T09:54:37;100953.75;;;-7.78;77.99
50292;BME280;36190;54.980;73.388;2023-11-19T09:57:04;100942.53;;;-7.79;77.80
50292;BME280;36190;54.980;73.388;2023-11-19T09:59:37;100941.94;;;-7.90;77.93
50292;BME280;36190;54.980;73.388;2023-11-19T10:02:07;100970.63;;;-7.99;78.10
50292;BME280;36190;54.980;73.388;2023-11-19T10:04:35;100972.63;;;-8.11;78.15
50292;BME280;36190;54.980;73.388;2023-11-19T10:07:04;100976.16;;;-8.15;78.40
50292;BME280;36190;54.980;73.388;2023-11-19T10:09:31;100976.38;;;-8.24;78.27
50292;BME280;36190;54.980;73.388;2023-11-19T10:11:59;100971.38;;;-8.34;78.33
50292;BME280;36190;54.980;73.388;2023-11-19T10:14:28;100970.56;;;-8.36;78.54
50292;BME280;36190;54.980;73.388;2023-11-19T10:17:01;100986.91;;;-8.34;78.73
50292;BME280;36190;54.980;73.388;2023-11-19T10:19:30;100985.22;;;-8.35;78.93
50292;BME280;36190;54.980;73.388;2023-11-19T10:22:04;100986.84;;;-8.31;79.13
50292;BME280;36190;54.980;73.388;2023-11-19T10:24:32;100994.47;;;-8.23;79.10
50292;BME280;36190;54.980;73.388;2023-11-19T10:27:00;100985.94;;;-8.28;78.97
50292;BME280;36190;54.980;73.388;2023-11-19T10:29:29;101008.31;;;-8.24;78.91
50292;BME280;36190;54.980;73.388;2023-11-19T10:31:58;101007.63;;;-8.34;78.80
50292;BME280;36190;54.980;73.388;2023-11-19T10:34:27;101001.69;;;-8.39;79.36
50292;BME280;36190;54.980;73.388;2023-11-19T10:36:56;101004.13;;;-8.31;79.33
50292;BME280;36190;54.980;73.388;2023-11-19T10:39:23;101015.41;;;-8.34;79.26
50292;BME280;36190;54.980;73.388;2023-11-19T10:41:51;101021.50;;;-8.38;79.36
50292;BME280;36190;54.980;73.388;2023-11-19T10:44:32;101019.72;;;-8.34;79.34
50292;BME280;36190;54.980;73.388;2023-11-19T10:47:01;101019.84;;;-8.40;79.48
50292;BME280;36190;54.980;73.388;2023-11-19T10:49:34;101026.63;;;-8.35;79.41
50292;BME280;36190;54.980;73.388;2023-11-19T10:52:03;101041.38;;;-8.37;79.60
50292;BME280;36190;54.980;73.388;2023-11-19T10:54:36;101033.63;;;-8.40;79.45
50292;BME280;36190;54.980;73.388;2023-11-19T10:57:05;101035.47;;;-8.45;79.71
50292;BME280;36190;54.980;73.388;2023-11-19T10:59:37;101032.91;;;-8.47;79.76
50292;BME280;36190;54.980;73.388;2023-11-19T11:02:10;101035.47;;;-8.45;79.98
50292;BME280;36190;54.980;73.388;2023-11-19T11:04:47;101045.00;;;-8.47;79.81
50292;BME280;36190;54.980;73.388;2023-11-19T11:07:19;101040.91;;;-8.58;79.75
50292;BME280;36190;54.980;73.388;2023-11-19T11:09:49;101049.47;;;-8.54;79.99
50292;BME280;36190;54.980;73.388;2023-11-19T11:12:18;101046.00;;;-8.53;80.02
50292;BME280;36190;54.980;73.388;2023-11-19T11:14:49;101056.97;;;-8.42;80.30
50292;BME280;36190;54.980;73.388;2023-11-19T11:17:18;101060.41;;;-8.41;80.14
50292;BME280;36190;54.980;73.388;2023-11-19T11:19:47;101059.59;;;-8.43;80.05
50292;BME280;36190;54.980;73.388;2023-11-19T11:22:16;101049.47;;;-8.52;80.03
50292;BME280;36190;54.980;73.388;2023-11-19T11:25:11;101061.50;;;-8.51;80.14
50292;BME280;36190;54.980;73.388;2023-11-19T11:28:09;101053.75;;;-8.53;80.33
50292;BME280;36190;54.980;73.388;2023-11-19T11:30:49;101065.88;;;-8.55;80.47
50292;BME280;36190;54.980;73.388;2023-11-19T11:33:31;101049.56;;;-8.59;80.47
50292;BME280;36190;54.980;73.388;2023-11-19T11:36:11;101069.28;;;-8.53;80.45
50292;BME280;36190;54.980;73.388;2023-11-19T11:38:41;101060.81;;;-8.61;80.54
50292;BME280;36190;54.980;73.388;2023-11-19T11:41:19;101071.91;;;-8.54;80.58
50292;BME280;36190;54.980;73.388;2023-11-19T11:43:48;101073.47;;;-8.47;80.62
50292;BME280;36190;54.980;73.388;2023-11-19T11:49:28;101077.63;;;-8.38;80.77
50292;BME280;36190;54.980;73.388;2023-11-19T11:52:04;101079.31;;;-8.37;80.68
50292;BME280;36190;54.980;73.388;2023-11-19T11:54:31;101084.53;;;-8.39;80.66
50292;BME280;36190;54.980;73.388;2023-11-19T11:57:06;101088.09;;;-8.45;80.75
50292;BME280;36190;54.980;73.388;2023-11-19T11:59:47;101094.97;;;-8.44;80.88
50292;BME280;36190;54.980;73.388;2023-11-19T12:02:17;101075.44;;;-8.59;80.90
50292;BME280;36190;54.980;73.388;2023-11-19T12:04:48;101087.34;;;-8.50;80.95
50292;BME280;36190;54.980;73.388;2023-11-19T12:07:18;101087.44;;;-8.54;81.14
50292;BME280;36190;54.980;73.388;2023-11-19T12:09:48;101096.94;;;-8.53;81.06
50292;BME280;36190;54.980;73.388;2023-11-19T12:12:21;101103.00;;;-8.56;81.10
50292;BME280;36190;54.980;73.388;2023-11-19T12:15:08;101087.66;;;-8.65;81.11
50292;BME280;36190;54.980;73.388;2023-11-19T12:17:46;101103.28;;;-8.73;81.29
50292;BME280;36190;54.980;73.388;2023-11-19T12:20:17;101112.84;;;-8.77;81.28
50292;BME280;36190;54.980;73.388;2023-11-19T12:22:47;101118.09;;;-8.81;81.33
50292;BME280;36190;54.980;73.388;2023-11-19T12:25:15;101115.44;;;-8.77;81.55
50292;BME280;36190;54.980;73.388;2023-11-19T12:27:45;101120.59;;;-8.75;81.53
50292;BME280;36190;54.980;73.388;2023-11-19T12:30:16;101120.66;;;-8.78;81.71
50292;BME280;36190;54.980;73.388;2023-11-19T12:32:44;101125.03;;;-8.82;81.61
50292;BME280;36190;54.980;73.388;2023-11-19T12:35:13;101125.81;;;-8.78;81.76
50292;BME280;36190;54.980;73.388;2023-11-19T12:37:41;101109.59;;;-8.88;81.71
50292;BME280;36190;54.980;73.388;2023-11-19T12:40:15;101132.78;;;-8.84;81.66
50292;BME280;36190;54.980;73.388;2023-11-19T12:42:43;101134.63;;;-8.90;81.80
50292;BME280;36190;54.980;73.388;2023-11-19T12:45:11;101139.81;;;-8.92;81.98
50292;BME280;36190;54.980;73.388;2023-11-19T12:47:39;101139.81;;;-8.90;82.12
50292;BME280;36190;54.980;73.388;2023-11-19T12:50:08;101142.41;;;-8.92;81.94
50292;BME280;36190;54.980;73.388;2023-11-19T12:52:36;101150.25;;;-8.96;82.01
50292;BME280;36190;54.980;73.388;2023-11-19T12:55:05;101151.94;;;-8.95;82.08